createdAt,value
2019-01-17T00:02:22.327Z,9.57
2019-01-17T00:04:58.899Z,9.30
2019-01-17T00:07:32.101Z,8.53
2019-01-17T00:10:14.331Z,8.47
2019-01-17T00:12:59.361Z,7.93
2019-01-17T00:15:41.688Z,8.10
2019-01-17T00:18:11.773Z,8.93
2019-01-17T00:20:48.477Z,7.43
2019-01-17T00:23:31.165Z,7.57
2019-01-17T00:26:13.201Z,6.20
2019-01-17T00:28:43.585Z,6.10
2019-01-17T00:31:14.105Z,6.60
2019-01-17T00:33:50.462Z,6.33
2019-01-17T00:36:37.393Z,5.00
2019-01-17T00:39:26.012Z,5.17
2019-01-17T00:42:04.929Z,6.30
2019-01-17T00:44:44.506Z,5.40
2019-01-17T00:47:26.929Z,5.40
2019-01-17T00:50:03.189Z,5.77
2019-01-17T00:52:49.551Z,5.37
2019-01-17T00:55:19.984Z,7.43
2019-01-17T00:58:06.382Z,9.77
2019-01-17T01:00:39.321Z,11.93
2019-01-17T01:03:26.162Z,11.53
2019-01-17T01:06:14.399Z,8.30
2019-01-17T01:08:53.259Z,8.20
2019-01-17T01:11:32.713Z,7.17
2019-01-17T01:14:06.053Z,6.13
2019-01-17T01:16:41.642Z,6.17
2019-01-17T01:19:14.713Z,7.53
2019-01-17T01:21:45.231Z,8.60
2019-01-17T01:24:18.532Z,8.67
2019-01-17T01:27:08.414Z,10.67
2019-01-17T01:29:54.998Z,13.37
2019-01-17T01:32:34.138Z,12.93
2019-01-17T01:35:20.672Z,15.50
2019-01-17T01:38:07.275Z,16.80
2019-01-17T01:40:46.445Z,19.87
2019-01-17T01:43:35.122Z,21.20
2019-01-17T01:46:21.894Z,21.47
2019-01-17T01:48:54.540Z,20.90
2019-01-17T01:51:39.730Z,20.63
2019-01-17T01:54:08.715Z,19.00
2019-01-17T01:56:37.473Z,17.27
2019-01-17T01:59:06.277Z,18.37
2019-01-17T02:01:34.720Z,16.20
2019-01-17T02:04:03.593Z,17.43
2019-01-17T02:06:33.830Z,16.53
2019-01-17T02:09:02.582Z,18.10
2019-01-17T02:11:31.337Z,17.20
2019-01-17T02:14:00.134Z,17.93
2019-01-17T02:16:28.922Z,18.80
2019-01-17T02:18:57.794Z,19.70
2019-01-17T02:21:26.668Z,18.53
2019-01-17T02:23:55.395Z,20.90
2019-01-17T02:26:24.137Z,18.97
2019-01-17T02:28:52.634Z,18.80
2019-01-17T02:31:21.078Z,18.87
2019-01-17T02:33:49.768Z,18.17
2019-01-17T02:36:18.517Z,17.00
2019-01-17T02:38:47.232Z,17.17
2019-01-17T02:41:16.063Z,15.33
2019-01-17T02:43:44.853Z,16.80
2019-01-17T02:46:13.364Z,16.90
2019-01-17T02:48:42.120Z,16.60
2019-01-17T02:51:10.878Z,16.03
2019-01-17T02:53:39.323Z,16.47
2019-01-17T02:56:08.068Z,15.37
2019-01-17T02:58:36.544Z,14.30
2019-01-17T03:01:05.320Z,14.93
2019-01-17T03:03:34.095Z,14.77
2019-01-17T03:06:02.889Z,15.93
2019-01-17T03:08:31.396Z,17.17
2019-01-17T03:11:00.262Z,15.93
2019-01-17T03:13:28.809Z,15.73
2019-01-17T03:15:57.324Z,15.63
2019-01-17T03:18:26.110Z,17.30
2019-01-17T03:20:54.910Z,17.47
2019-01-17T03:23:23.720Z,16.93
2019-01-17T03:25:52.484Z,19.83
2019-01-17T03:28:21.294Z,18.83
2019-01-17T03:30:50.162Z,17.73
2019-01-17T03:33:18.875Z,19.40
2019-01-17T03:35:47.737Z,19.47
2019-01-17T03:38:16.612Z,19.00
2019-01-17T03:40:45.352Z,18.40
2019-01-17T03:43:14.186Z,19.60
2019-01-17T03:45:42.641Z,20.67
2019-01-17T03:48:11.569Z,20.60
2019-01-17T03:50:40.361Z,21.57
2019-01-17T03:53:10.325Z,22.00
2019-01-17T03:55:38.941Z,22.00
2019-01-17T03:58:07.737Z,22.67
2019-01-17T04:00:36.185Z,22.43
2019-01-17T04:03:04.718Z,22.80
2019-01-17T04:05:33.467Z,23.40
2019-01-17T04:08:02.295Z,22.87
2019-01-17T04:10:32.161Z,22.20
2019-01-17T04:13:00.954Z,24.73
2019-01-17T04:15:29.465Z,23.47
2019-01-17T04:17:57.961Z,23.93
2019-01-17T04:20:26.402Z,26.50
2019-01-17T04:22:55.237Z,25.93
2019-01-17T04:25:24.060Z,27.90
2019-01-17T04:27:52.521Z,26.63
2019-01-17T04:30:21.050Z,24.93
2019-01-17T04:32:49.586Z,23.70
2019-01-17T04:35:18.300Z,25.43
2019-01-17T04:37:47.104Z,23.27
2019-01-17T04:40:15.849Z,26.60
2019-01-17T04:42:44.364Z,25.23
2019-01-17T04:45:14.058Z,24.63
2019-01-17T04:47:42.773Z,26.80
2019-01-17T04:50:13.655Z,26.00
2019-01-17T04:52:42.311Z,27.07
2019-01-17T04:55:12.923Z,26.70
2019-01-17T04:57:41.807Z,25.90
2019-01-17T05:00:19.538Z,23.93
2019-01-17T05:02:48.114Z,24.80
2019-01-17T05:05:16.956Z,24.73
2019-01-17T05:07:46.002Z,23.07
2019-01-17T05:10:16.808Z,24.90
2019-01-17T05:12:45.298Z,24.03
2019-01-17T05:15:14.675Z,23.90
2019-01-17T05:17:43.111Z,23.37
2019-01-17T05:20:14.394Z,24.13
2019-01-17T05:22:43.167Z,25.13
2019-01-17T05:25:12.965Z,25.50
2019-01-17T05:27:41.978Z,24.73
2019-01-17T05:30:15.921Z,25.20
2019-01-17T05:32:44.539Z,26.07
2019-01-17T05:35:13.246Z,25.13
2019-01-17T05:37:42.129Z,24.93
2019-01-17T05:40:13.627Z,25.43
2019-01-17T05:42:42.329Z,25.63
2019-01-17T05:45:11.296Z,23.13
2019-01-17T05:47:39.813Z,25.57
2019-01-17T05:50:13.605Z,26.87
2019-01-17T05:52:42.071Z,24.07
2019-01-17T05:55:10.874Z,30.10
2019-01-17T05:57:39.329Z,28.03
2019-01-17T06:00:14.331Z,28.37
2019-01-17T06:02:42.929Z,30.00
2019-01-17T06:05:12.497Z,29.37
2019-01-17T06:07:40.983Z,27.13
2019-01-17T06:10:13.304Z,30.40
2019-01-17T06:12:42.179Z,27.30
2019-01-17T06:15:17.823Z,27.10
2019-01-17T06:17:46.729Z,26.23
2019-01-17T06:20:16.822Z,23.77
2019-01-17T06:22:45.365Z,26.90
2019-01-17T06:25:14.000Z,25.37
2019-01-17T06:27:42.513Z,24.37
2019-01-17T06:30:15.843Z,23.87
2019-01-17T06:32:44.643Z,24.63
2019-01-17T06:35:14.670Z,23.87
2019-01-17T06:37:43.152Z,23.60
2019-01-17T06:40:23.723Z,23.43
2019-01-17T06:42:52.605Z,23.53
2019-01-17T06:45:21.475Z,20.63
2019-01-17T06:47:50.079Z,22.47
2019-01-17T06:50:18.575Z,22.77
2019-01-17T06:52:47.043Z,20.90
2019-01-17T06:55:15.687Z,21.50
2019-01-17T06:57:44.664Z,20.07
2019-01-17T07:00:17.100Z,22.80
2019-01-17T07:02:45.768Z,21.40
2019-01-17T07:05:15.214Z,22.53
2019-01-17T07:07:43.933Z,21.83
2019-01-17T07:10:15.300Z,22.30
2019-01-17T07:12:44.183Z,23.23
2019-01-17T07:15:14.233Z,24.87
2019-01-17T07:17:42.691Z,23.57
2019-01-17T07:20:13.680Z,23.23
2019-01-17T07:22:42.496Z,24.80
2019-01-17T07:25:11.562Z,24.83
2019-01-17T07:27:40.425Z,23.57
2019-01-17T07:30:17.877Z,23.70
2019-01-17T07:32:46.405Z,24.23
2019-01-17T07:35:15.442Z,27.30
2019-01-17T07:37:44.342Z,22.53
2019-01-17T07:40:13.731Z,25.83
2019-01-17T07:42:42.246Z,23.77
2019-01-17T07:45:19.852Z,23.87
2019-01-17T07:47:48.624Z,25.47
2019-01-17T07:50:17.499Z,26.53
2019-01-17T07:52:46.261Z,26.77
2019-01-17T07:55:14.854Z,25.80
2019-01-17T07:57:45.455Z,25.87
2019-01-17T08:00:19.108Z,22.70
2019-01-17T08:02:48.014Z,24.73
2019-01-17T08:05:18.719Z,26.63
2019-01-17T08:07:48.635Z,24.13
2019-01-17T08:10:19.203Z,24.50
2019-01-17T08:12:48.252Z,23.90
2019-01-17T08:15:17.337Z,24.53
2019-01-17T08:17:46.083Z,24.13
2019-01-17T08:20:20.515Z,22.37
2019-01-17T08:22:49.424Z,23.00
2019-01-17T08:25:19.972Z,24.87
2019-01-17T08:27:48.776Z,22.73
2019-01-17T08:30:23.443Z,18.83
2019-01-17T08:32:51.972Z,18.83
2019-01-17T08:35:20.869Z,20.80
2019-01-17T08:37:52.471Z,19.50
2019-01-17T08:40:24.092Z,16.77
2019-01-17T08:42:53.048Z,14.60
2019-01-17T08:45:21.820Z,15.03
2019-01-17T08:47:50.604Z,14.00
2019-01-17T08:50:19.492Z,11.43
2019-01-17T08:52:47.956Z,12.80
2019-01-17T08:55:16.481Z,11.93
2019-01-17T08:57:45.032Z,11.70
2019-01-17T09:00:19.683Z,9.50
2019-01-17T09:02:48.569Z,10.07
2019-01-17T09:05:17.760Z,9.30
2019-01-17T09:07:46.590Z,8.63
2019-01-17T09:10:20.546Z,7.60
2019-01-17T09:12:49.350Z,7.13
2019-01-17T09:15:20.760Z,7.63
2019-01-17T09:17:49.650Z,7.73
2019-01-17T09:20:18.241Z,11.10
2019-01-17T09:22:47.056Z,7.97
2019-01-17T09:25:17.026Z,8.00
2019-01-17T09:27:45.738Z,7.97
2019-01-17T09:30:20.382Z,7.60
2019-01-17T09:32:49.238Z,8.40
2019-01-17T09:35:18.881Z,7.13
2019-01-17T09:37:47.497Z,6.87
2019-01-17T09:40:18.291Z,6.53
2019-01-17T09:42:47.361Z,3.87
2019-01-17T09:45:16.304Z,2.93
2019-01-17T09:47:45.253Z,3.13
2019-01-17T09:50:16.914Z,3.57
2019-01-17T09:52:45.452Z,3.37
2019-01-17T09:55:13.962Z,3.60
2019-01-17T09:57:42.828Z,3.03
2019-01-17T10:00:14.620Z,3.23
2019-01-17T10:02:43.596Z,2.37
2019-01-17T10:05:12.049Z,2.23
2019-01-17T10:07:40.862Z,3.10
2019-01-17T10:10:12.427Z,1.23
2019-01-17T10:12:40.951Z,1.47
2019-01-17T10:15:15.529Z,1.37
2019-01-17T10:17:58.959Z,1.40
2019-01-17T10:20:42.143Z,1.87
2019-01-17T10:23:28.930Z,1.60
2019-01-17T10:26:21.222Z,2.40
2019-01-17T10:29:10.509Z,1.87
2019-01-17T10:31:47.805Z,2.03
2019-01-17T10:34:28.254Z,2.50
2019-01-17T10:37:02.684Z,2.77
2019-01-17T10:39:54.663Z,2.30
2019-01-17T10:42:41.314Z,2.40
2019-01-17T10:45:37.748Z,2.10
2019-01-17T10:48:36.592Z,1.80
2019-01-17T10:51:19.600Z,1.80
2019-01-17T10:54:00.029Z,2.60
2019-01-17T10:56:43.757Z,2.07
2019-01-17T10:59:32.329Z,3.20
2019-01-17T11:02:13.284Z,2.40
2019-01-17T11:04:57.302Z,3.10
2019-01-17T11:07:49.661Z,3.20
2019-01-17T11:10:39.649Z,2.43
2019-01-17T11:13:14.333Z,3.00
2019-01-17T11:15:46.237Z,2.93
2019-01-17T11:18:20.871Z,2.87
2019-01-17T11:21:18.536Z,2.67
2019-01-17T11:24:05.338Z,2.80
2019-01-17T11:26:45.703Z,3.20
2019-01-17T11:29:33.708Z,2.30
2019-01-17T11:32:10.947Z,2.40
2019-01-17T11:34:42.481Z,2.53
2019-01-17T11:37:23.531Z,1.80
2019-01-17T11:40:17.823Z,2.33
2019-01-17T11:43:09.331Z,2.87
2019-01-17T11:45:52.921Z,3.33
2019-01-17T11:48:33.234Z,1.67
2019-01-17T11:51:04.769Z,2.03
2019-01-17T11:53:36.621Z,1.30
2019-01-17T11:56:23.529Z,1.87
2019-01-17T11:59:19.193Z,1.50
2019-01-17T12:02:00.045Z,2.70
2019-01-17T12:04:31.618Z,1.47
2019-01-17T12:07:06.387Z,1.67
2019-01-17T12:09:35.173Z,1.30
2019-01-17T12:12:04.234Z,1.33
2019-01-17T12:14:33.178Z,1.53
2019-01-17T12:17:01.906Z,1.10
2019-01-17T12:19:32.820Z,1.40
2019-01-17T12:22:01.562Z,0.90
2019-01-17T12:24:30.268Z,1.30
2019-01-17T12:26:59.065Z,1.13
2019-01-17T12:29:27.537Z,1.37
2019-01-17T12:31:57.809Z,1.47
2019-01-17T12:34:26.317Z,1.93
2019-01-17T12:36:55.937Z,1.67
2019-01-17T12:39:25.170Z,3.57
2019-01-17T12:41:53.699Z,2.23
2019-01-17T12:44:22.814Z,2.63
2019-01-17T12:46:52.118Z,2.43
2019-01-17T12:49:24.893Z,2.07
2019-01-17T12:51:53.890Z,2.00
2019-01-17T12:54:22.397Z,1.90
2019-01-17T12:56:54.109Z,1.47
2019-01-17T12:59:21.354Z,1.73
2019-01-17T13:01:49.860Z,2.13
2019-01-17T13:04:18.470Z,2.23
2019-01-17T13:06:47.429Z,1.60
2019-01-17T13:09:16.936Z,2.17
2019-01-17T13:11:45.713Z,2.03
2019-01-17T13:14:14.168Z,1.50
2019-01-17T13:16:42.634Z,2.00
2019-01-17T13:19:11.511Z,1.53
2019-01-17T13:21:40.114Z,1.67
2019-01-17T13:24:08.543Z,2.33
2019-01-17T13:26:37.305Z,1.67
2019-01-17T13:29:06.520Z,1.77
2019-01-17T13:31:43.162Z,2.20
2019-01-17T13:34:11.662Z,1.03
2019-01-17T13:36:40.717Z,1.60
2019-01-17T13:39:09.413Z,1.63
2019-01-17T13:41:37.920Z,1.57
2019-01-17T13:44:06.723Z,1.70
2019-01-17T13:46:35.173Z,1.63
2019-01-17T13:49:03.693Z,2.03
2019-01-17T13:51:33.474Z,1.60
2019-01-17T13:54:02.805Z,1.80
2019-01-17T13:56:31.817Z,1.73
2019-01-17T13:59:00.778Z,1.30
2019-01-17T14:01:30.689Z,1.93
2019-01-17T14:04:00.432Z,1.87
2019-01-17T14:06:28.942Z,1.33
2019-01-17T14:08:57.756Z,1.20
2019-01-17T14:11:26.552Z,1.77
2019-01-17T14:13:56.922Z,1.40
2019-01-17T14:16:25.637Z,1.73
2019-01-17T14:18:54.376Z,1.57
2019-01-17T14:21:25.594Z,1.50
2019-01-17T14:23:53.792Z,1.43
2019-01-17T14:26:22.523Z,1.20
2019-01-17T14:28:51.344Z,1.37
2019-01-17T14:31:20.121Z,1.30
2019-01-17T14:33:49.006Z,1.57
2019-01-17T14:36:17.870Z,1.77
2019-01-17T14:38:46.672Z,1.50
2019-01-17T14:41:15.159Z,1.73
2019-01-17T14:43:44.409Z,1.77
2019-01-17T14:46:12.961Z,1.80
2019-01-17T14:48:41.978Z,1.70
2019-01-17T14:51:10.574Z,2.33
2019-01-17T14:53:39.026Z,1.40
2019-01-17T14:56:07.568Z,1.33
2019-01-17T14:58:36.303Z,0.93
2019-01-17T15:01:06.893Z,1.20
2019-01-17T15:03:40.749Z,0.80
2019-01-17T15:06:09.646Z,0.60
2019-01-17T15:08:38.752Z,0.80
2019-01-17T15:11:07.302Z,1.33
2019-01-17T15:13:36.063Z,1.10
2019-01-17T15:16:04.688Z,0.97
2019-01-17T15:18:33.748Z,1.10
2019-01-17T15:21:02.874Z,1.97
2019-01-17T15:23:32.228Z,1.40
2019-01-17T15:26:00.833Z,1.80
2019-01-17T15:28:29.332Z,1.60
2019-01-17T15:30:58.192Z,1.90
2019-01-17T15:33:26.826Z,1.27
2019-01-17T15:35:55.324Z,1.10
2019-01-17T15:38:23.833Z,1.60
2019-01-17T15:40:52.768Z,1.80
2019-01-17T15:43:21.915Z,1.73
2019-01-17T15:45:50.493Z,1.73
2019-01-17T15:48:19.645Z,2.17
2019-01-17T15:50:48.224Z,2.33
2019-01-17T15:53:17.662Z,2.07
2019-01-17T15:55:46.560Z,2.43
2019-01-17T15:58:15.406Z,3.17
2019-01-17T16:00:44.197Z,2.60
2019-01-17T16:03:12.725Z,3.07
2019-01-17T16:05:41.495Z,4.37
2019-01-17T16:08:10.211Z,2.97
2019-01-17T16:10:39.801Z,2.43
2019-01-17T16:13:08.677Z,3.07
2019-01-17T16:15:37.476Z,2.63
2019-01-17T16:18:06.464Z,3.00
2019-01-17T16:20:37.583Z,2.57
2019-01-17T16:23:06.617Z,2.63
2019-01-17T16:25:35.710Z,3.23
2019-01-17T16:28:04.324Z,2.93
2019-01-17T16:30:32.921Z,4.00
2019-01-17T16:33:01.393Z,3.37
2019-01-17T16:35:29.888Z,3.43
2019-01-17T16:37:58.472Z,2.83
2019-01-17T16:40:27.179Z,3.50
2019-01-17T16:43:02.421Z,5.10
2019-01-17T16:45:35.435Z,5.20
2019-01-17T16:48:01.612Z,5.70
2019-01-17T16:50:30.142Z,4.10
2019-01-17T16:52:58.936Z,4.77
2019-01-17T16:55:29.521Z,3.37
2019-01-17T16:57:58.321Z,4.07
2019-01-17T17:00:33.233Z,3.97
2019-01-17T17:03:02.005Z,2.63
2019-01-17T17:05:30.825Z,2.77
2019-01-17T17:07:59.715Z,3.20
2019-01-17T17:10:28.268Z,3.80
2019-01-17T17:12:56.786Z,2.97
2019-01-17T17:15:25.893Z,3.40
2019-01-17T17:17:54.934Z,3.17
2019-01-17T17:20:25.591Z,2.67
2019-01-17T17:22:54.769Z,3.20
2019-01-17T17:25:23.283Z,3.20
2019-01-17T17:27:55.692Z,3.10
2019-01-17T17:30:28.604Z,3.23
2019-01-17T17:32:59.393Z,2.33
2019-01-17T17:35:30.773Z,3.70
2019-01-17T17:37:59.855Z,3.10
2019-01-17T17:43:34.423Z,3.83
2019-01-17T17:46:05.603Z,3.03
2019-01-17T17:48:35.755Z,3.93
2019-01-17T17:51:04.855Z,3.03
2019-01-17T17:53:33.373Z,2.40
2019-01-17T17:56:02.303Z,2.43
2019-01-17T17:58:30.895Z,3.37
2019-01-17T18:01:02.116Z,3.27
2019-01-17T18:03:30.861Z,3.90
2019-01-17T18:05:59.670Z,4.77
2019-01-17T18:08:28.381Z,4.40
2019-01-17T18:10:57.120Z,5.10
2019-01-17T18:13:25.694Z,6.00
2019-01-17T18:15:54.516Z,6.47
2019-01-17T18:18:23.275Z,6.40
2019-01-17T18:20:54.249Z,6.60
2019-01-17T18:23:23.335Z,7.03
2019-01-17T18:25:52.405Z,7.17
2019-01-17T18:28:21.682Z,7.50
2019-01-17T18:30:50.197Z,8.17
2019-01-17T18:33:21.124Z,7.53
2019-01-17T18:35:49.967Z,8.20
2019-01-17T18:38:18.405Z,7.20
2019-01-17T18:40:46.915Z,7.50
2019-01-17T18:43:15.353Z,7.70
2019-01-17T18:45:44.110Z,6.87
2019-01-17T18:48:14.043Z,8.00
2019-01-17T18:50:42.738Z,6.87
2019-01-17T18:53:11.558Z,7.17
2019-01-17T18:55:40.726Z,7.73
2019-01-17T18:58:15.386Z,8.00
2019-01-17T19:00:43.456Z,6.47
2019-01-17T19:03:11.971Z,5.77
2019-01-17T19:05:40.771Z,5.73
2019-01-17T19:08:09.776Z,7.37
2019-01-17T19:10:38.391Z,6.33
2019-01-17T19:13:06.888Z,6.03
2019-01-17T19:15:35.588Z,5.93
2019-01-17T19:18:04.746Z,5.60
2019-01-17T19:20:33.273Z,4.83
2019-01-17T19:23:01.715Z,4.73
2019-01-17T19:25:32.390Z,5.37
2019-01-17T19:28:00.965Z,4.77
2019-01-17T19:30:30.524Z,4.43
2019-01-17T19:32:59.126Z,4.60
2019-01-17T19:35:27.749Z,4.20
2019-01-17T19:37:56.403Z,4.60
2019-01-17T19:40:27.494Z,6.87
2019-01-17T19:42:56.073Z,5.50
2019-01-17T19:45:24.535Z,5.07
2019-01-17T19:47:53.533Z,5.30
2019-01-17T19:50:25.202Z,4.80
2019-01-17T19:52:54.409Z,5.53
2019-01-17T19:55:23.303Z,5.77
2019-01-17T19:57:52.187Z,3.67
2019-01-17T20:00:21.629Z,3.70
2019-01-17T20:02:50.298Z,4.70
2019-01-17T20:05:21.615Z,4.50
2019-01-17T20:07:50.488Z,4.37
2019-01-17T20:10:31.063Z,4.13
2019-01-17T20:12:59.644Z,3.83
2019-01-17T20:15:28.524Z,3.27
2019-01-17T20:17:57.055Z,3.60
2019-01-17T20:20:31.691Z,3.37
2019-01-17T20:22:57.963Z,4.53
2019-01-17T20:25:26.598Z,4.77
2019-01-17T20:27:55.045Z,5.30
2019-01-17T20:30:26.574Z,5.97
2019-01-17T20:32:56.478Z,5.63
2019-01-17T20:35:25.176Z,5.17
2019-01-17T20:37:53.956Z,5.70
2019-01-17T20:40:25.078Z,5.13
2019-01-17T20:42:56.438Z,5.13
2019-01-17T20:45:25.440Z,6.30
2019-01-17T20:47:54.187Z,5.97
2019-01-17T20:50:28.584Z,6.90
2019-01-17T20:52:57.044Z,6.27
2019-01-17T20:55:25.654Z,12.87
2019-01-17T20:57:54.540Z,13.17
2019-01-17T21:00:32.472Z,10.27
2019-01-17T21:03:01.372Z,9.57
2019-01-17T21:05:30.401Z,12.83
2019-01-17T21:07:59.478Z,7.47
2019-01-17T21:10:28.346Z,5.80
2019-01-17T21:12:56.888Z,7.40
2019-01-17T21:15:26.052Z,7.97
2019-01-17T21:17:54.956Z,8.70
2019-01-17T21:20:23.434Z,7.03
2019-01-17T21:22:52.292Z,7.07
2019-01-17T21:25:21.628Z,10.70
2019-01-17T21:27:50.464Z,3.67
2019-01-17T21:30:21.595Z,4.60
2019-01-17T21:32:51.126Z,5.30
2019-01-17T21:35:20.314Z,5.67
2019-01-17T21:37:49.472Z,4.63
2019-01-17T21:40:23.191Z,5.37
2019-01-17T21:42:52.566Z,7.17
2019-01-17T21:45:21.392Z,9.13
2019-01-17T21:47:50.339Z,8.73
2019-01-17T21:50:27.608Z,8.67
2019-01-17T21:52:56.606Z,9.43
2019-01-17T21:55:25.891Z,8.60
2019-01-17T21:57:54.884Z,9.37
2019-01-17T22:00:30.462Z,10.93
2019-01-17T22:02:59.340Z,11.67
2019-01-17T22:05:29.604Z,13.20
2019-01-17T22:07:58.687Z,15.47
2019-01-17T22:10:29.187Z,17.93
2019-01-17T22:12:58.244Z,18.73
2019-01-17T22:15:28.601Z,16.60
2019-01-17T22:17:57.084Z,13.97
2019-01-17T22:20:25.588Z,13.23
2019-01-17T22:22:54.398Z,13.83
2019-01-17T22:25:22.873Z,13.40
2019-01-17T22:27:53.824Z,11.10
2019-01-17T22:30:30.258Z,10.87
2019-01-17T22:32:59.096Z,10.70
2019-01-17T22:35:27.672Z,9.97
2019-01-17T22:37:56.807Z,14.43
2019-01-17T22:40:25.245Z,9.70
2019-01-17T22:42:54.357Z,8.73
2019-01-17T22:45:25.560Z,8.97
2019-01-17T22:47:55.792Z,8.27
2019-01-17T22:50:31.900Z,8.73
2019-01-17T22:53:00.364Z,8.17
2019-01-17T22:55:31.067Z,8.27
2019-01-17T22:57:59.302Z,8.33
2019-01-17T23:00:33.793Z,8.37
2019-01-17T23:03:12.777Z,7.07
2019-01-17T23:05:41.227Z,8.17
2019-01-17T23:08:09.761Z,7.40
2019-01-17T23:10:38.574Z,7.70
2019-01-17T23:13:07.050Z,5.13
2019-01-17T23:15:35.923Z,6.03
2019-01-17T23:18:04.797Z,5.10
2019-01-17T23:20:33.261Z,6.97
2019-01-17T23:23:01.801Z,7.20
2019-01-17T23:25:32.714Z,8.33
2019-01-17T23:28:01.279Z,7.03
2019-01-17T23:30:30.641Z,6.57
2019-01-17T23:33:01.780Z,5.73
2019-01-17T23:35:30.249Z,7.47
2019-01-17T23:37:59.150Z,6.47
2019-01-17T23:40:27.977Z,6.60
2019-01-17T23:42:56.879Z,6.43
2019-01-17T23:45:28.173Z,7.07
2019-01-17T23:47:57.127Z,4.60
2019-01-17T23:50:25.673Z,4.80
2019-01-17T23:52:54.440Z,13.33
2019-01-17T23:55:23.221Z,7.63
2019-01-17T23:57:53.030Z,7.13
